createdAt,value
2023-02-14T00:01:00.681Z,19.55
2023-02-14T00:06:08.855Z,23.40
2023-02-14T00:11:16.706Z,29.70
2023-02-14T00:16:21.552Z,30.30
2023-02-14T00:21:26.503Z,28.55
2023-02-14T00:26:34.152Z,31.95
2023-02-14T00:31:39.239Z,32.97
2023-02-14T00:36:44.095Z,29.88
2023-02-14T00:41:51.457Z,26.25
2023-02-14T00:46:56.228Z,22.13
2023-02-14T00:52:01.079Z,22.17
2023-02-14T00:57:08.660Z,21.02
2023-02-14T01:02:13.499Z,23.40
2023-02-14T01:07:18.546Z,23.45
2023-02-14T01:12:25.992Z,21.75
2023-02-14T01:17:30.841Z,30.63
2023-02-14T01:22:38.612Z,24.10
2023-02-14T01:27:49.561Z,20.35
2023-02-14T01:33:01.105Z,24.15
2023-02-14T01:38:09.018Z,17.05
2023-02-14T01:43:25.725Z,14.95
2023-02-14T01:48:30.543Z,12.38
2023-02-14T01:53:35.410Z,14.13
2023-02-14T01:58:45.302Z,15.05
2023-02-14T02:03:51.535Z,12.90
2023-02-14T02:09:00.751Z,12.13
2023-02-14T02:14:08.251Z,12.45
2023-02-14T02:19:25.121Z,11.30
2023-02-14T02:24:34.789Z,11.85
2023-02-14T02:29:57.406Z,12.43
2023-02-14T02:35:23.054Z,12.05
2023-02-14T02:40:42.663Z,13.45
2023-02-14T02:46:15.373Z,11.18
2023-02-14T02:51:36.328Z,11.93
2023-02-14T02:56:51.477Z,12.85
2023-02-14T03:02:02.514Z,13.00
2023-02-14T03:07:27.996Z,10.27
2023-02-14T03:12:47.638Z,17.08
2023-02-14T03:17:59.882Z,21.15
2023-02-14T03:23:07.611Z,19.00
2023-02-14T03:28:15.221Z,18.10
2023-02-14T03:33:25.924Z,15.85
2023-02-14T03:38:32.826Z,16.45
2023-02-14T03:43:46.143Z,16.10
2023-02-14T03:48:54.520Z,13.60
2023-02-14T03:54:00.955Z,17.38
2023-02-14T03:59:09.301Z,17.90
2023-02-14T04:04:18.381Z,12.05
2023-02-14T04:09:23.130Z,14.85
2023-02-14T04:14:29.777Z,13.77
2023-02-14T04:19:37.360Z,14.70
2023-02-14T04:24:42.204Z,15.32
2023-02-14T04:29:47.960Z,14.73
2023-02-14T04:34:55.461Z,13.43
2023-02-14T04:40:00.198Z,14.38
2023-02-14T04:45:05.078Z,12.85
2023-02-14T04:50:13.171Z,11.93
2023-02-14T04:55:17.942Z,13.35
2023-02-14T05:00:23.036Z,12.07
2023-02-14T05:05:30.362Z,16.27
2023-02-14T05:10:35.215Z,18.88
2023-02-14T05:15:39.890Z,13.57
2023-02-14T05:20:47.246Z,12.07
2023-02-14T05:25:52.310Z,13.48
2023-02-14T05:30:57.290Z,12.73
2023-02-14T05:36:05.115Z,12.13
2023-02-14T05:41:09.925Z,12.68
2023-02-14T05:46:14.763Z,11.35
2023-02-14T05:51:22.199Z,11.95
2023-02-14T05:56:26.908Z,15.23
2023-02-14T06:01:31.760Z,16.10
2023-02-14T06:06:39.161Z,14.35
2023-02-14T06:11:44.004Z,11.45
2023-02-14T06:16:48.849Z,12.40
2023-02-14T06:21:56.404Z,14.32
2023-02-14T06:27:01.865Z,10.77
2023-02-14T06:32:07.526Z,9.80
2023-02-14T06:37:14.990Z,11.18
2023-02-14T06:42:20.665Z,12.25
2023-02-14T06:47:25.540Z,11.82
2023-02-14T06:52:33.137Z,12.05
2023-02-14T06:57:37.893Z,13.57
2023-02-14T07:02:42.864Z,17.23
2023-02-14T07:07:50.408Z,14.45
2023-02-14T07:12:59.376Z,14.15
2023-02-14T07:18:04.268Z,13.15
2023-02-14T07:23:11.783Z,13.75
2023-02-14T07:28:16.725Z,11.38
2023-02-14T07:33:21.677Z,11.35
2023-02-14T07:38:30.787Z,11.02
2023-02-14T07:43:36.163Z,11.45
2023-02-14T07:48:41.826Z,13.82
2023-02-14T07:53:51.392Z,11.02
2023-02-14T07:58:56.590Z,10.93
2023-02-14T08:04:01.448Z,11.02
2023-02-14T08:09:24.950Z,11.02
2023-02-14T08:14:29.913Z,12.35
2023-02-14T08:19:34.763Z,11.43
2023-02-14T08:24:48.251Z,11.82
2023-02-14T08:29:53.087Z,12.10
2023-02-14T08:34:57.936Z,12.15
2023-02-14T08:40:05.328Z,11.07
2023-02-14T08:45:10.562Z,9.30
2023-02-14T08:50:16.215Z,10.48
2023-02-14T08:55:23.720Z,9.57
2023-02-14T09:00:28.839Z,11.98
2023-02-14T09:05:33.823Z,9.63
2023-02-14T09:10:41.339Z,8.48
2023-02-14T09:15:46.107Z,9.25
2023-02-14T09:20:50.854Z,9.23
2023-02-14T09:26:02.804Z,9.20
2023-02-14T09:31:11.631Z,9.38
2023-02-14T09:36:28.783Z,11.35
2023-02-14T09:41:51.337Z,8.95
2023-02-14T09:47:00.153Z,9.18
2023-02-14T09:52:05.773Z,11.93
2023-02-14T09:57:16.570Z,9.63
2023-02-14T10:02:30.989Z,8.65
2023-02-14T10:07:40.624Z,10.30
2023-02-14T10:12:47.894Z,10.60
2023-02-14T10:17:59.213Z,11.40
2023-02-14T10:23:07.979Z,15.90
2023-02-14T10:28:16.943Z,13.07
2023-02-14T10:33:28.889Z,11.00
2023-02-14T10:38:41.082Z,9.60
2023-02-14T10:43:50.127Z,12.10
2023-02-14T10:49:00.353Z,10.95
2023-02-14T11:05:05.790Z,11.98
2023-02-14T11:08:12.164Z,11.40
2023-02-14T11:10:14.578Z,11.10
2023-02-14T11:15:24.995Z,11.73
2023-02-14T11:20:33.399Z,15.45
2023-02-14T11:25:38.217Z,13.27
2023-02-14T11:30:45.943Z,12.23
2023-02-14T11:35:54.883Z,13.52
2023-02-14T11:41:00.559Z,13.00
2023-02-14T11:46:16.414Z,15.27
2023-02-14T11:51:28.389Z,13.85
2023-02-14T11:56:47.921Z,13.50
2023-02-14T12:01:55.663Z,12.13
2023-02-14T12:07:28.339Z,13.15
2023-02-14T12:12:35.830Z,14.50
2023-02-14T12:17:42.438Z,25.00
2023-02-14T12:22:49.761Z,20.52
2023-02-14T12:28:01.592Z,17.63
2023-02-14T12:33:06.616Z,16.00
2023-02-14T12:38:14.406Z,12.40
2023-02-14T12:43:30.667Z,12.25
2023-02-14T12:48:58.624Z,13.48
2023-02-14T12:54:24.382Z,12.93
2023-02-14T12:59:41.113Z,13.05
2023-02-14T13:04:51.705Z,12.50
2023-02-14T13:10:00.356Z,12.10
2023-02-14T13:15:15.111Z,14.90
2023-02-14T13:20:32.491Z,15.30
2023-02-14T13:25:41.048Z,13.48
2023-02-14T13:30:48.840Z,13.68
2023-02-14T13:35:54.191Z,12.93
2023-02-14T13:41:00.110Z,13.35
2023-02-14T13:46:08.101Z,13.60
2023-02-14T13:51:13.966Z,14.63
2023-02-14T13:56:35.501Z,56.08
2023-02-14T14:01:48.391Z,16.40
2023-02-14T14:12:46.330Z,19.52
2023-02-14T14:28:52.750Z,13.23
2023-02-14T14:34:01.386Z,15.90
2023-02-14T14:39:06.605Z,16.65
2023-02-14T14:44:14.000Z,20.10
2023-02-14T14:49:19.578Z,24.85
2023-02-14T14:54:25.519Z,28.00
2023-02-14T14:59:35.594Z,24.30
2023-02-14T15:04:40.496Z,17.95
2023-02-14T15:15:21.416Z,14.38
2023-02-14T15:20:33.329Z,15.65
2023-02-14T15:25:53.181Z,20.35
2023-02-14T15:31:05.374Z,20.63
2023-02-14T15:36:12.141Z,22.48
2023-02-14T15:41:17.245Z,34.55
2023-02-14T15:46:32.339Z,27.73
2023-02-14T15:51:49.818Z,31.15
2023-02-14T15:57:00.110Z,35.28
2023-02-14T16:02:18.920Z,32.47
2023-02-14T16:07:26.352Z,31.95
2023-02-14T16:12:34.806Z,29.85
2023-02-14T16:23:13.444Z,32.95
2023-02-14T16:28:21.088Z,32.33
2023-02-14T16:33:26.769Z,39.63
2023-02-14T16:38:34.599Z,48.63
2023-02-14T16:43:42.291Z,66.97
2023-02-14T16:48:51.586Z,64.90
2023-02-14T16:53:57.268Z,56.05
2023-02-14T16:59:04.887Z,49.70
2023-02-14T17:04:10.325Z,48.22
2023-02-14T17:09:16.088Z,43.13
2023-02-14T17:14:26.080Z,38.88
2023-02-14T17:19:31.396Z,36.88
2023-02-14T17:24:36.222Z,36.33
2023-02-14T17:29:43.712Z,34.67
2023-02-14T17:34:49.652Z,35.63
2023-02-14T17:39:55.801Z,34.15
2023-02-14T17:45:04.113Z,33.75
2023-02-14T17:50:09.756Z,35.72
2023-02-14T17:55:16.031Z,35.35
2023-02-14T18:00:26.096Z,34.15
2023-02-14T18:05:30.796Z,34.58
2023-02-14T18:10:35.478Z,32.63
2023-02-14T18:16:07.323Z,32.78
2023-02-14T18:21:15.902Z,30.98
2023-02-14T18:26:21.098Z,30.38
2023-02-14T18:31:26.601Z,32.22
2023-02-14T18:36:34.928Z,46.40
2023-02-14T18:41:40.009Z,35.60
2023-02-14T18:47:08.755Z,35.63
2023-02-14T18:52:16.841Z,34.92
2023-02-14T18:57:21.804Z,36.72
2023-02-14T19:02:26.767Z,39.65
2023-02-14T19:07:46.394Z,41.03
2023-02-14T19:13:00.592Z,46.85
2023-02-14T19:18:11.431Z,51.70
2023-02-14T19:23:39.803Z,53.85
2023-02-14T19:28:48.241Z,53.25
2023-02-14T19:39:34.190Z,48.65
2023-02-14T19:44:41.644Z,44.83
2023-02-14T19:49:51.551Z,45.05
2023-02-14T19:54:58.487Z,44.25
2023-02-14T20:00:11.402Z,41.58
2023-02-14T20:10:51.227Z,42.00
2023-02-14T20:15:58.526Z,41.47
2023-02-14T20:21:05.941Z,40.00
2023-02-14T20:26:14.513Z,39.22
2023-02-14T20:31:22.196Z,40.83
2023-02-14T20:36:27.211Z,41.92
2023-02-14T20:41:34.641Z,41.65
2023-02-14T20:46:42.118Z,47.80
2023-02-14T20:51:49.931Z,44.80
2023-02-14T20:56:54.975Z,43.70
2023-02-14T21:02:02.978Z,45.08
2023-02-14T21:07:10.516Z,51.30
2023-02-14T21:23:16.772Z,50.70
2023-02-14T21:28:21.566Z,39.80
2023-02-14T21:33:31.664Z,38.03
2023-02-14T21:38:36.406Z,33.83
2023-02-14T21:43:42.085Z,33.72
2023-02-14T21:49:02.892Z,33.95
2023-02-14T21:54:07.926Z,33.33
2023-02-14T21:59:13.338Z,33.33
2023-02-14T22:04:20.680Z,34.28
2023-02-14T22:09:25.539Z,36.78
2023-02-14T22:14:30.776Z,37.53
2023-02-14T22:19:38.362Z,36.47
2023-02-14T22:24:57.207Z,36.20
2023-02-14T22:30:02.074Z,40.13
2023-02-14T22:35:12.602Z,35.88
2023-02-14T22:40:17.306Z,37.63
2023-02-14T22:45:22.066Z,38.25
2023-02-14T22:50:29.670Z,43.33
2023-02-14T22:55:34.577Z,39.15
2023-02-14T23:00:39.321Z,39.00
2023-02-14T23:05:46.626Z,55.80
2023-02-14T23:10:51.861Z,42.30
2023-02-14T23:16:08.921Z,42.45
2023-02-14T23:21:30.286Z,40.25
2023-02-14T23:26:37.300Z,38.33
2023-02-14T23:31:42.423Z,34.97
2023-02-14T23:36:50.114Z,36.95
2023-02-14T23:41:55.525Z,36.03
2023-02-14T23:47:01.397Z,32.03
2023-02-14T23:52:09.511Z,31.42
2023-02-14T23:57:14.289Z,32.50
